Time;durP1;ratioP1;P1;durP2;ratioP2;P2;SDS_P1;SDS_P2;PMS_P1;PMS_P2;Temp;Humidity;BMP_temperature;BMP_pressure;BME280_temperature;BME280_humidity;BME280_pressure;Samples;Min_cycle;Max_cycle;Signal;HPM_P1;HPM_P2
2024/01/09 00:00:47;;;;;;;13.17;6.37;;;;;;;-2.91;100.00;103278.59;5111183;27;19991;-76
2024/01/09 00:03:13;;;;;;;;;;;;;;;-2.89;100.00;103276.81;5141790;27;20072;-75
2024/01/09 00:05:38;;;;;;;12.47;6.03;;;;;;;-2.94;100.00;103260.31;5115714;27;20343;-76
2024/01/09 00:08:03;;;;;;;;;;;;;;;-2.93;100.00;103243.75;5126120;27;20312;-76
2024/01/09 00:10:29;;;;;;;20.77;6.60;;;;;;;-3.03;100.00;103220.28;5127091;27;19915;-76
2024/01/09 00:12:55;;;;;;;;;;;;;;;-3.13;100.00;103210.81;5128357;27;20019;-76
2024/01/09 00:15:20;;;;;;;15.43;6.70;;;;;;;-3.10;100.00;103226.47;5123094;27;19911;-76
2024/01/09 00:17:45;;;;;;;;;;;;;;;-3.10;100.00;103216.00;5124773;27;20797;-77
2024/01/09 00:20:11;;;;;;;12.17;7.10;;;;;;;-3.12;100.00;103209.06;5124015;27;20669;-76
2024/01/09 00:22:36;;;;;;;;;;;;;;;-3.15;100.00;103212.56;5124745;27;20285;-76
2024/01/09 00:25:02;;;;;;;13.63;5.75;;;;;;;-3.20;100.00;103201.31;5125266;27;19907;-75
2024/01/09 00:27:27;;;;;;;;;;;;;;;-3.16;100.00;103210.84;5126101;27;20525;-76
2024/01/09 00:29:52;;;;;;;;;;;;;;;-3.16;100.00;103207.34;5127055;27;20337;-76
2024/01/09 00:32:17;;;;;;;15.40;5.67;;;;;;;-3.15;100.00;103209.97;5125498;27;19918;-76
2024/01/09 00:34:43;;;;;;;;;;;;;;;-3.13;100.00;103204.75;5134167;27;20022;-76
2024/01/09 00:37:08;;;;;;;;;;;;;;;-3.12;100.00;103207.31;5127205;27;19907;-76
2024/01/09 00:39:33;;;;;;;14.07;6.67;;;;;;;-3.20;100.00;103190.84;5125655;27;19911;-76
2024/01/09 00:41:59;;;;;;;;;;;;;;;-3.16;100.00;103196.91;5127042;27;20023;-76
2024/01/09 00:44:24;;;;;;;15.40;7.27;;;;;;;-3.20;100.00;103188.25;5125139;27;19911;-76
2024/01/09 00:46:49;;;;;;;;;;;;;;;-3.23;100.00;103199.59;5127421;27;20066;-76
2024/01/09 00:49:14;;;;;;;20.30;7.28;;;;;;;-3.21;100.00;103196.94;5126702;27;19915;-76
2024/01/09 00:51:40;;;;;;;;;;;;;;;-3.20;100.00;103202.16;5116790;28;20126;-76
2024/01/09 00:54:05;;;;;;;13.63;5.83;;;;;;;-3.21;100.00;103191.72;5137056;27;19915;-76
2024/01/09 00:56:30;;;;;;;;;;;;;;;-3.17;100.00;103192.56;5146468;27;20524;-76
2024/01/09 00:58:56;;;;;;;;;;;;;;;-3.16;100.00;103194.28;5136202;27;19915;-76
2024/01/09 01:01:21;;;;;;;14.10;6.37;;;;;;;-3.22;100.00;103184.78;5126490;27;20334;-76
2024/01/09 01:03:46;;;;;;;;;;;;;;;-3.16;100.00;103209.97;5143553;27;20042;-76
2024/01/09 01:06:12;;;;;;;14.23;6.43;;;;;;;-3.12;100.00;103214.28;5125298;27;19935;-76
2024/01/09 01:08:37;;;;;;;;;;;;;;;-3.12;100.00;103207.31;5135662;27;20038;-76
2024/01/09 01:11:05;;;;;;;13.80;6.60;;;;;;;-3.14;100.00;103211.69;5111929;27;20000;-76
2024/01/09 01:13:30;;;;;;;10.90;5.72;;;;;;;-3.21;100.00;103191.72;5143798;27;20536;-76
2024/01/09 01:15:55;;;;;;;;;;;;;;;-3.21;100.00;103191.72;5132792;27;20039;-76
2024/01/09 01:18:21;;;;;;;14.77;7.03;;;;;;;-3.22;100.00;103187.38;5151085;27;19993;-76
2024/01/09 01:20:46;;;;;;;;;;;;;;;-3.21;100.00;103196.94;5132823;27;20462;-76
2024/01/09 01:23:11;;;;;;;;;;;;;;;-3.12;100.00;103212.53;5137938;27;20300;-76
2024/01/09 01:25:37;;;;;;;12.70;6.43;;;;;;;-3.09;100.00;103207.31;5128905;27;19914;-76
2024/01/09 01:28:03;;;;;;;;;;;;;;;-3.05;100.00;103218.59;5126909;27;20032;-76
2024/01/09 01:30:28;;;;;;;15.32;6.72;;;;;;;-2.97;100.00;103222.88;5129828;27;20300;-76
2024/01/09 01:32:53;;;;;;;;;;;;;;;-2.94;100.00;103226.34;5128749;27;20062;-76
2024/01/09 01:35:19;;;;;;;19.63;7.77;;;;;;;-2.98;100.00;103213.28;5128593;27;19956;-76
2024/01/09 01:37:44;;;;;;;;;;;;;;;-2.98;100.00;103222.88;5128983;27;20408;-76
2024/01/09 01:40:10;;;;;;;18.03;6.23;;;;;;;-2.97;100.00;103211.56;5130451;27;20132;-76
2024/01/09 01:42:35;;;;;;;;;;;;;;;-2.92;100.00;103209.75;5130173;27;20718;-76
2024/01/09 01:45:00;;;;;;;12.35;5.88;;;;;;;-2.84;100.00;103217.50;5129294;27;19915;-76
2024/01/09 01:47:26;;;;;;;;;;;;;;;-2.78;100.00;103220.06;5130165;27;20474;-76
2024/01/09 01:49:52;;;;;;;16.00;7.05;;;;;;;-2.77;100.00;103216.56;5129577;27;19922;-76
2024/01/09 01:52:18;;;;;;;13.05;6.60;;;;;;;-2.78;100.00;103207.00;5129609;27;20027;-76
2024/01/09 01:54:44;;;;;;;12.77;6.82;;;;;;;-2.68;100.00;103219.09;5127828;27;20038;-76
2024/01/09 01:57:10;;;;;;;;;;;;;;;-2.59;100.00;103236.44;5129928;27;20015;-76
2024/01/09 01:59:40;;;;;;;12.18;6.03;;;;;;;-2.63;100.00;103212.03;5128196;27;19923;-75
2024/01/09 02:02:06;;;;;;;13.52;5.93;;;;;;;-2.57;100.00;103222.44;5127691;27;20027;-76
2024/01/09 02:04:32;;;;;;;10.40;6.05;;;;;;;-2.56;100.00;103212.84;5128659;27;20084;-76
2024/01/09 02:06:58;;;;;;;14.35;5.55;;;;;;;-2.53;100.00;103206.72;5127600;27;20038;-76
2024/01/09 02:09:23;;;;;;;16.30;6.43;;;;;;;-2.52;100.00;103204.09;5127587;27;20038;-76
2024/01/09 02:11:49;;;;;;;;;;;;;;;-2.49;100.00;103198.81;5116633;27;20459;-76
2024/01/09 02:14:14;;;;;;;;;;;;;;;-2.50;100.00;103185.78;5136055;27;20766;-76
2024/01/09 02:16:40;;;;;;;13.88;5.53;;;;;;;-2.64;100.00;103158.03;5128758;27;20301;-76
2024/01/09 02:19:05;;;;;;;;;;;;;;;-2.74;100.00;103138.06;5127863;27;20035;-76
2024/01/09 02:21:30;;;;;;;14.07;5.35;;;;;;;-2.84;100.00;103118.16;5109745;27;19911;-76
2024/01/09 02:23:56;;;;;;;;;;;;;;;-2.79;100.00;103132.03;5142230;27;20137;-76
2024/01/09 02:26:29;;;;;;;12.23;6.07;;;;;;;-2.78;100.00;103139.00;5140648;27;19907;-76
2024/01/09 02:28:58;;;;;;;10.50;5.43;;;;;;;-2.83;100.00;103127.75;5128674;27;20080;-76
2024/01/09 02:31:24;;;;;;;14.95;5.75;;;;;;;-2.84;100.00;103116.41;5147616;27;20033;-76
2024/01/09 02:33:50;;;;;;;;;;;;;;;-2.80;100.00;103122.47;5147146;27;20019;-76
2024/01/09 02:36:15;;;;;;;18.02;6.10;;;;;;;-2.77;100.00;103130.28;5139596;27;19919;-76
2024/01/09 02:38:40;;;;;;;;;;;;;;;-2.71;100.00;103142.44;5148024;27;20033;-76
2024/01/09 02:41:06;;;;;;;11.30;5.00;;;;;;;-2.65;100.00;103150.19;5144988;27;19914;-77
2024/01/09 02:43:31;;;;;;;;;;;;;;;-2.56;100.00;103166.63;5127083;27;20038;-76
2024/01/09 02:45:56;;;;;;;16.13;5.65;;;;;;;-2.53;100.00;103163.09;5144593;27;20009;-76
2024/01/09 02:48:21;;;;;;;;;;;;;;;-2.45;100.00;103176.09;5147274;27;20130;-76
2024/01/09 02:50:47;;;;;;;12.73;6.07;;;;;;;-2.45;100.00;103163.03;5147378;27;19957;-76
2024/01/09 02:53:12;;;;;;;;;;;;;;;-2.49;100.00;103159.56;5145604;27;20038;-76
2024/01/09 02:55:37;;;;;;;11.50;5.27;;;;;;;-2.39;100.00;103174.28;5141857;27;19907;-76
2024/01/09 02:58:03;;;;;;;;;;;;;;;-2.34;100.00;103177.72;5147343;27;20287;-76
2024/01/09 03:00:29;;;;;;;11.80;5.30;;;;;;;-2.36;100.00;103162.91;5147354;27;19955;-76
2024/01/09 03:02:55;;;;;;;11.13;4.85;;;;;;;-2.30;100.00;103165.44;5138405;27;20869;-76
2024/01/09 03:05:20;;;;;;;19.33;7.47;;;;;;;-2.28;100.00;103163.66;5146613;27;20042;-76
2024/01/09 03:07:45;;;;;;;;;;;;;;;-2.28;100.00;103154.94;5148589;27;20027;-76
2024/01/09 03:10:11;;;;;;;9.90;5.20;;;;;;;-2.27;100.00;103156.66;5146694;27;20414;-76
2024/01/09 03:12:36;;;;;;;;;;;;;;;-2.18;100.00;103157.44;5148747;27;20054;-76
2024/01/09 03:15:01;;;;;;;12.47;5.07;;;;;;;-2.20;100.00;103143.50;5147908;27;20048;-76
2024/01/09 03:17:27;;;;;;;10.65;4.70;;;;;;;-2.19;100.00;103139.13;5147296;27;20275;-76
2024/01/09 03:19:52;;;;;;;;;;;;;;;-2.23;100.00;103116.50;5130525;27;20031;-76
2024/01/09 03:22:17;;;;;;;9.67;4.70;;;;;;;-2.22;100.00;103124.34;5146991;27;19918;-76
2024/01/09 03:24:43;;;;;;;;;;;;;;;-2.18;100.00;103130.38;5146951;27;20019;-76
2024/01/09 03:27:09;;;;;;;13.17;5.47;;;;;;;-2.15;100.00;103127.72;5146811;27;19911;-76
2024/01/09 03:29:34;;;;;;;10.60;5.70;;;;;;;-2.13;100.00;103118.97;5146984;27;20086;-77
2024/01/09 03:32:00;;;;;;;9.27;5.00;;;;;;;-2.21;100.00;103105.13;5130137;27;20027;-76
2024/01/09 03:34:25;;;;;;;;;;;;;;;-2.15;100.00;103115.50;5124642;27;20074;-76
2024/01/09 03:36:50;;;;;;;11.60;6.50;;;;;;;-2.18;100.00;103098.97;5143277;27;19910;-76
2024/01/09 03:39:15;;;;;;;;;;;;;;;-2.15;100.00;103093.72;5136791;27;20280;-77
2024/01/09 03:41:46;;;;;;;13.57;6.73;;;;;;;-2.23;100.00;103074.63;5108376;27;19916;-76
2024/01/09 03:44:12;;;;;;;14.38;7.70;;;;;;;-2.26;100.00;103064.22;5133622;27;20042;-76
2024/01/09 03:46:38;;;;;;;16.85;7.93;;;;;;;-2.32;100.00;103054.69;5127144;27;20051;-76
2024/01/09 03:49:03;;;;;;;19.58;7.68;;;;;;;-2.36;100.00;103042.56;5144346;27;20066;-76
2024/01/09 03:51:29;;;;;;;;;;;;;;;-2.35;100.00;103039.03;5138913;27;20102;-76
2024/01/09 03:53:54;;;;;;;18.08;8.02;;;;;;;-2.35;100.00;103047.75;5130853;27;20063;-76
2024/01/09 03:56:19;;;;;;;;;;;;;;;-2.39;100.00;103042.56;5147768;27;20569;-76
2024/01/09 03:58:45;;;;;;;11.52;6.57;;;;;;;-2.49;100.00;103025.31;5128993;27;19922;-76
2024/01/09 04:01:10;;;;;;;;;;;;;;;-2.56;100.00;103011.44;5129071;27;20038;-76
2024/01/09 04:03:36;;;;;;;15.93;7.28;;;;;;;-2.63;100.00;103002.81;5145848;27;19915;-76
2024/01/09 04:06:02;;;;;;;;;;;;;;;-2.72;100.00;102992.47;5145881;27;20027;-76
2024/01/09 04:08:27;;;;;;;;;;;;;;;-2.83;100.00;102983.94;5144169;27;19917;-76
2024/01/09 04:10:52;;;;;;;14.82;7.57;;;;;;;-2.92;100.00;102973.63;5123899;27;20297;-76
2024/01/09 04:13:18;;;;;;;;;;;;;;;-2.97;100.00;102977.16;5141855;27;20074;-76
2024/01/09 04:15:44;;;;;;;16.95;6.88;;;;;;;-3.01;100.00;102979.84;5141078;27;19907;-77
2024/01/09 04:18:09;;;;;;;;;;;;;;;-3.14;100.00;102971.28;5146034;27;20038;-76
2024/01/09 04:20:34;;;;;;;15.27;8.52;;;;;;;-3.24;100.00;102960.06;5147178;27;19918;-78
2024/01/09 04:22:59;;;;;;;;;;;;;;;-3.28;100.00;102960.13;5117835;27;20039;-76
2024/01/09 04:25:25;;;;;;;16.63;6.88;;;;;;;-3.41;100.00;102947.22;5133251;27;19927;-76
2024/01/09 04:27:50;;;;;;;;;;;;;;;-3.45;100.00;102955.97;5116766;27;20042;-76
2024/01/09 04:30:15;;;;;;;14.20;6.00;;;;;;;-3.59;100.00;102929.16;5128080;27;19907;-76
2024/01/09 04:32:41;;;;;;;;;;;;;;;-3.58;100.00;102940.47;5147187;27;20035;-76
2024/01/09 04:35:06;;;;;;;;;;;;;;;-3.68;100.00;102934.50;5146858;27;19911;-76
2024/01/09 04:37:31;;;;;;;12.27;6.00;;;;;;;-3.74;100.00;102925.00;5145739;27;19918;-76
2024/01/09 04:39:57;;;;;;;;;;;;;;;-3.74;100.00;102939.81;5137780;27;20019;-76
2024/01/09 04:42:22;;;;;;;;;;;;;;;-3.84;100.00;102929.47;5138172;27;19998;-76
2024/01/09 04:44:47;;;;;;;15.10;6.93;;;;;;;-3.89;100.00;102936.44;5150266;27;20286;-76
2024/01/09 04:47:15;;;;;;;;;;;;;;;-3.86;100.00;102952.09;5150210;27;20125;-76
2024/01/09 04:49:42;;;;;;;19.90;7.43;;;;;;;-3.93;100.00;102944.34;5150946;27;20266;-76
2024/01/09 04:52:08;;;;;;;16.48;7.53;;;;;;;-3.97;100.00;102942.66;5147138;27;20039;-76
2024/01/09 04:54:33;;;;;;;;;;;;;;;-3.96;100.00;102949.59;5143450;27;20029;-76
2024/01/09 04:56:59;;;;;;;13.82;7.00;;;;;;;-3.98;100.00;102967.88;5132248;27;19938;-76
2024/01/09 04:59:24;;;;;;;;;;;;;;;-3.99;100.00;102981.78;5151251;27;20026;-76
2024/01/09 05:01:50;;;;;;;;;;;;;;;-3.96;100.00;102999.16;5141640;27;20042;-76
2024/01/09 05:04:15;;;;;;;17.05;9.00;;;;;;;-4.00;100.00;103003.56;5148902;27;19914;-76
2024/01/09 05:06:40;;;;;;;;;;;;;;;-4.01;100.00;103020.09;5148619;27;20093;-76
2024/01/09 05:09:05;;;;;;;19.67;8.63;;;;;;;-4.06;100.00;103019.25;5150362;27;19915;-75
2024/01/09 05:11:31;;;;;;;;;;;;;;;-4.06;100.00;103027.09;5151026;27;20026;-76
2024/01/09 05:13:56;;;;;;;;;;;;;;;-4.12;100.00;103024.50;5149230;27;19911;-75
2024/01/09 05:16:24;;;;;;;24.77;9.67;;;;;;;-4.17;100.00;103027.16;5149237;27;19979;-76
2024/01/09 05:18:49;;;;;;;19.23;8.98;;;;;;;-4.18;100.00;103037.63;5150501;27;20037;-76
2024/01/09 05:21:14;;;;;;;;;;;;;;;-4.26;100.00;103020.28;5149475;27;20026;-76
2024/01/09 05:23:40;;;;;;;;;;;;;;;-4.26;100.00;103017.69;5149031;27;20300;-76
2024/01/09 05:26:06;;;;;;;16.88;8.25;;;;;;;-4.25;100.00;103028.97;5148709;27;20404;-76
2024/01/09 05:28:31;;;;;;;;;;;;;;;-4.23;100.00;103036.81;5140959;27;20031;-76
2024/01/09 05:30:56;;;;;;;22.95;8.40;;;;;;;-4.35;100.00;103019.50;5149883;27;20280;-76
2024/01/09 05:33:21;;;;;;;;;;;;;;;-4.36;100.00;103025.56;5150374;27;20037;-76
2024/01/09 05:35:47;;;;;;;;;;;;;;;-4.36;100.00;103036.88;5131655;27;19911;-75
2024/01/09 05:38:12;;;;;;;19.83;9.20;;;;;;;-4.38;100.00;103037.75;5149741;27;19917;-76
2024/01/09 05:40:38;;;;;;;23.40;9.77;;;;;;;-4.34;100.00;103052.50;5150013;27;20022;-76
2024/01/09 05:43:03;;;;;;;;;;;;;;;-4.39;100.00;103039.50;5150040;27;20113;-76
2024/01/09 05:45:28;;;;;;;23.80;9.82;;;;;;;-4.46;100.00;103035.22;5148414;27;19921;-76
2024/01/09 05:47:54;;;;;;;20.52;10.02;;;;;;;-4.53;100.00;103020.47;5149687;27;20026;-76
2024/01/09 05:50:19;;;;;;;;;;;;;;;-4.51;100.00;103032.63;5149387;27;20031;-76
2024/01/09 05:52:44;;;;;;;23.70;11.30;;;;;;;-4.46;100.00;103043.88;5148809;27;19954;-77
2024/01/09 05:55:10;;;;;;;19.73;10.52;;;;;;;-4.50;100.00;103046.53;5147043;27;20043;-76
2024/01/09 05:57:35;;;;;;;;;;;;;;;-4.51;100.00;103044.81;5149082;27;20601;-76
2024/01/09 06:00:00;;;;;;;17.75;9.93;;;;;;;-4.71;100.00;103005.81;5149562;27;19915;-76
2024/01/09 06:02:26;;;;;;;26.73;11.00;;;;;;;-4.59;100.00;103038.75;5148406;27;20015;-77
2024/01/09 06:04:51;;;;;;;;;;;;;;;-4.68;100.00;103039.69;5131110;27;20030;-76
2024/01/09 06:07:17;;;;;;;27.52;13.50;;;;;;;-4.75;100.00;103017.16;5149392;27;20010;-76
2024/01/09 06:09:43;;;;;;;;;;;;;;;-4.69;100.00;103035.34;5150011;27;20034;-76
2024/01/09 06:12:08;;;;;;;24.48;11.90;;;;;;;-4.79;100.00;103018.88;5148033;27;19957;-76
2024/01/09 06:14:33;;;;;;;27.13;11.00;;;;;;;-4.78;100.00;103023.22;5149207;27;20042;-76
2024/01/09 06:16:59;;;;;;;30.23;13.77;;;;;;;-4.84;100.00;103010.22;5113752;27;20034;-76
2024/01/09 06:19:24;;;;;;;;;;;;;;;-4.83;100.00;103013.69;5150093;27;20027;-76
2024/01/09 06:21:50;;;;;;;;;;;;;;;-4.90;100.00;102994.63;5143010;27;20018;-75
2024/01/09 06:24:15;;;;;;;20.75;9.60;;;;;;;-4.96;100.00;102969.47;5148719;27;19915;-75
2024/01/09 06:26:40;;;;;;;;;;;;;;;-4.92;100.00;102991.16;5148446;27;20187;-76
2024/01/09 06:29:06;;;;;;;;;;;;;;;-4.84;100.00;103010.22;5148225;27;19914;-76
2024/01/09 06:31:32;;;;;;;20.00;9.32;;;;;;;-4.83;100.00;103017.16;5149311;27;19999;-76
2024/01/09 06:33:57;;;;;;;22.00;9.68;;;;;;;-4.84;100.00;103015.44;5141731;27;20791;-76
2024/01/09 06:36:22;;;;;;;;;;;;;;;-4.74;100.00;103037.97;5149371;27;20101;-76
2024/01/09 06:38:48;;;;;;;;;;;;;;;-4.59;100.00;103075.25;5148219;27;19911;-76
2024/01/09 06:41:13;;;;;;;;;;;;;;;-4.56;100.00;103088.28;5127502;27;19911;-76
2024/01/09 06:43:38;;;;;;;18.40;9.48;;;;;;;-4.56;100.00;103085.69;5147584;27;19910;-76
2024/01/09 06:46:04;;;;;;;16.88;8.63;;;;;;;-4.56;100.00;103099.59;5147355;27;20495;-76
2024/01/09 06:48:29;;;;;;;;;;;;;;;-4.57;100.00;103090.00;5139461;27;20326;-76
2024/01/09 06:50:54;;;;;;;;;;;;;;;-4.56;100.00;103083.06;5146642;27;19997;-76
2024/01/09 06:53:19;;;;;;;;;;;;;;;-4.58;100.00;103084.81;5146199;27;19915;-76
2024/01/09 06:55:45;;;;;;;24.03;9.00;;;;;;;-4.60;100.00;103081.34;5146434;27;19915;-76
2024/01/09 06:58:12;;;;;;;;;;;;;;;-4.54;100.00;103099.56;5147703;27;20268;-76
2024/01/09 07:00:37;;;;;;;18.80;8.43;;;;;;;-4.57;100.00;103103.03;5130075;27;19975;-76
2024/01/09 07:03:03;;;;;;;;;;;;;;;-4.54;100.00;103107.38;5147798;27;20022;-76
2024/01/09 07:05:28;;;;;;;;;;;;;;;-4.55;100.00;103108.25;5144889;27;19955;-76
2024/01/09 07:07:54;;;;;;;18.02;9.00;;;;;;;-4.55;100.00;103121.31;5127257;27;19919;-76
2024/01/09 07:10:19;;;;;;;;;;;;;;;-4.50;100.00;103125.59;5140508;27;20572;-76
2024/01/09 07:12:44;;;;;;;;;;;;;;;-4.37;100.00;103146.44;5147659;27;20350;-76
2024/01/09 07:15:13;;;;;;;15.50;8.18;;;;;;;-4.27;100.00;103169.84;5148227;27;19911;-76
2024/01/09 07:17:39;;;;;;;14.68;8.27;;;;;;;-4.30;100.00;103159.44;5147296;27;20109;-76
2024/01/09 07:20:04;;;;;;;;;;;;;;;-4.19;100.00;103189.78;5148891;27;20991;-76
2024/01/09 07:22:30;;;;;;;17.73;8.82;;;;;;;-4.22;100.00;103185.47;5126823;27;20377;-76
2024/01/09 07:24:55;;;;;;;;;;;;;;;-4.10;100.00;103200.19;5141594;27;20035;-75
2024/01/09 07:27:20;;;;;;;;;;;;;;;-4.10;100.00;103198.47;5145409;27;19922;-75
2024/01/09 07:29:46;;;;;;;15.70;7.87;;;;;;;-4.15;100.00;103188.91;5140898;27;19911;-76
2024/01/09 07:32:11;;;;;;;16.60;8.52;;;;;;;-4.18;100.00;103183.72;5138805;27;20037;-76
2024/01/09 07:34:36;;;;;;;;;;;;;;;-4.11;100.00;103188.88;5143953;27;20118;-75
2024/01/09 07:37:02;;;;;;;20.40;9.85;;;;;;;-4.09;100.00;103188.91;5142776;27;19968;-76
2024/01/09 07:39:27;;;;;;;;;;;;;;;-4.07;100.00;103181.94;5147453;27;20397;-76
2024/01/09 07:41:52;;;;;;;;;;;;;;;-4.06;100.00;103186.25;5121591;27;19914;-76
2024/01/09 07:44:18;;;;;;;17.90;8.32;;;;;;;-4.12;100.00;103178.44;5144626;27;20521;-76
2024/01/09 07:46:43;;;;;;;;;;;;;;;-4.20;100.00;103155.03;5145502;27;20091;-76
2024/01/09 07:49:08;;;;;;;18.33;8.55;;;;;;;-4.23;100.00;103148.97;5146218;27;20247;-76
2024/01/09 07:51:34;;;;;;;;;;;;;;;-4.21;100.00;103147.19;5147620;27;20045;-76
2024/01/09 07:53:59;;;;;;;13.63;7.22;;;;;;;-4.23;100.00;103144.63;5147445;27;19915;-76
2024/01/09 07:56:24;;;;;;;;;;;;;;;-4.22;100.00;103135.03;5146816;27;20062;-76
2024/01/09 07:58:50;;;;;;;;;;;;;;;-4.22;100.00;103127.22;5114111;27;19915;-75
2024/01/09 08:01:16;;;;;;;16.47;8.30;;;;;;;-4.19;100.00;103124.56;5136772;27;19915;-76
2024/01/09 08:03:42;;;;;;;17.30;8.65;;;;;;;-4.17;100.00;103128.91;5131403;27;20354;-76
2024/01/09 08:06:25;;;;;;;14.90;8.25;;;;;;;-4.20;100.00;103117.63;5131427;27;20507;-76
2024/01/09 08:09:10;;;;;;;20.35;10.18;;;;;;;-4.14;100.00;103120.22;5147521;27;20041;-76
2024/01/09 08:11:54;;;;;;;15.98;8.57;;;;;;;-4.11;100.00;103118.44;5147897;27;20091;-76
2024/01/09 08:14:38;;;;;;;18.25;9.52;;;;;;;-4.11;100.00;103100.19;5134328;27;20057;-76
2024/01/09 08:17:22;;;;;;;17.65;8.40;;;;;;;-4.07;100.00;103099.28;5137605;27;20095;-76
2024/01/09 08:20:06;;;;;;;17.17;9.10;;;;;;;-4.10;100.00;103085.38;5135888;27;20049;-76
2024/01/09 08:22:32;;;;;;;;;;;;;;;-4.08;100.00;103091.47;5123036;27;20027;-76
2024/01/09 08:24:57;;;;;;;18.88;8.38;;;;;;;-4.25;100.00;103047.22;5139562;27;20377;-76
2024/01/09 08:27:22;;;;;;;18.77;8.70;;;;;;;-4.20;100.00;103042.00;5146107;27;20030;-76
2024/01/09 08:29:48;;;;;;;15.80;7.68;;;;;;;-4.10;100.00;103054.06;5146381;27;20035;-76
2024/01/09 08:32:15;;;;;;;;;;;;;;;-4.03;100.00;103048.81;5142907;27;20099;-76
2024/01/09 08:34:41;;;;;;;15.55;8.20;;;;;;;-3.99;100.00;103054.84;5147073;27;19911;-76
2024/01/09 08:37:06;;;;;;;16.20;7.15;;;;;;;-3.58;100.00;103123.25;5144304;27;20043;-76
2024/01/09 08:39:32;;;;;;;;;;;;;;;-2.67;100.00;103228.69;5145566;27;20037;-77
2024/01/09 08:41:57;;;;;;;15.47;7.00;;;;;;;-1.51;100.00;103301.38;5129494;27;19957;-77
2024/01/09 08:44:25;;;;;;;;;;;;;;;-0.61;100.00;103338.41;5147316;27;20023;-77
2024/01/09 08:46:50;;;;;;;10.80;6.40;;;;;;;0.14;100.00;103355.41;5131638;27;19915;-77
2024/01/09 08:49:16;;;;;;;8.93;5.85;;;;;;;1.01;100.00;103375.41;5127872;27;20397;-76
2024/01/09 08:51:41;;;;;;;10.38;6.15;;;;;;;1.66;100.00;103337.78;5142212;27;20026;-77
2024/01/09 08:54:07;;;;;;;11.40;6.20;;;;;;;2.03;100.00;103231.34;5147253;27;20034;-77
2024/01/09 08:56:32;;;;;;;;;;;;;;;2.75;100.00;103221.16;5140365;27;20111;-75
2024/01/09 08:58:58;;;;;;;15.82;8.73;;;;;;;3.62;100.00;103193.44;5147266;27;19906;-75
2024/01/09 09:01:25;;;;;;;15.60;8.57;;;;;;;4.14;100.00;102995.78;5133843;27;20030;-74
2024/01/09 09:03:51;;;;;;;16.85;8.68;;;;;;;4.41;100.00;102694.84;5140426;27;20137;-74
2024/01/09 09:06:18;;;;;;;12.38;6.65;;;;;;;4.79;100.00;102442.50;5144960;27;20485;-74
2024/01/09 09:08:44;;;;;;;8.85;6.10;;;;;;;4.83;100.00;102092.94;5144338;27;20119;-74
2024/01/09 09:11:14;;;;;;;13.80;4.75;;;;;;;5.21;100.00;101988.28;5144367;27;20137;-75
2024/01/09 09:13:41;;;;;;;10.35;6.03;;;;;;;5.31;100.00;101744.91;5125949;27;20848;-74
2024/01/09 09:16:07;;;;;;;11.82;6.18;;;;;;;5.89;100.00;101648.97;5141699;27;20039;-75
2024/01/09 09:18:32;;;;;;;8.13;5.57;;;;;;;5.53;100.00;101190.72;5143421;27;20084;-75
2024/01/09 09:20:57;;;;;;;7.83;4.60;;;;;;;6.26;100.00;101282.19;5142380;27;20026;-75
2024/01/09 09:23:23;;;;;;;8.63;4.60;;;;;;;6.03;100.00;100990.63;5144992;27;20129;-74
2024/01/09 09:25:48;;;;;;;7.65;4.32;;;;;;;6.68;100.00;101057.69;5145604;27;20047;-74
2024/01/09 09:28:13;;;;;;;6.80;4.23;;;;;;;6.91;100.00;100916.88;5146884;27;20400;-74
2024/01/09 09:30:39;;;;;;;9.17;3.87;;;;;;;7.03;100.00;100750.38;5144953;27;20928;-75
2024/01/09 09:33:04;;;;;;;6.40;3.50;;;;;;;7.17;100.00;100679.09;5149161;27;20583;-75
2024/01/09 09:35:30;;;;;;;4.95;2.90;;;;;;;7.34;98.77;100640.31;5131545;27;20525;-74
2024/01/09 09:37:55;;;;;;;6.57;4.37;;;;;;;7.15;95.49;100484.56;5149140;27;20030;-75
2024/01/09 09:40:22;;;;;;;6.83;4.33;;;;;;;7.22;94.04;100526.47;5139733;27;20034;-74
2024/01/09 09:42:50;;;;;;;;;;;;;;;7.52;91.10;100441.19;5148779;27;20477;-74
2024/01/09 09:45:19;;;;;;;6.00;3.38;;;;;;;7.57;90.58;100573.56;5149244;27;20285;-74
2024/01/09 09:47:47;;;;;;;4.68;2.97;;;;;;;7.68;87.12;100347.53;5131440;27;20034;-74
2024/01/09 09:50:13;;;;;;;4.10;3.13;;;;;;;6.70;85.27;100089.19;5148316;27;20043;-74
2024/01/09 09:52:42;;;;;;;5.20;2.90;;;;;;;5.22;84.92;99865.22;5145753;27;20033;-74
2024/01/09 09:55:10;;;;;;;5.25;3.38;;;;;;;6.25;87.40;100554.88;5140318;27;20035;-75
2024/01/09 09:57:36;;;;;;;4.05;2.30;;;;;;;7.34;85.99;100711.22;5126478;27;20031;-74
2024/01/09 10:00:04;;;;;;;5.07;2.65;;;;;;;7.73;83.37;100541.88;5149752;27;20046;-74
2024/01/09 10:02:33;;;;;;;3.58;2.63;;;;;;;7.38;82.67;100465.59;5133487;27;20026;-74
2024/01/09 10:05:06;;;;;;;3.28;2.25;;;;;;;7.57;81.06;100383.13;5147926;27;20034;-74
2024/01/09 10:07:37;;;;;;;4.97;2.58;;;;;;;7.60;79.58;100284.50;5122694;27;20042;-75
2024/01/09 10:10:06;;;;;;;3.45;2.40;;;;;;;7.65;78.84;100285.88;5127189;27;20043;-74
2024/01/09 10:12:33;;;;;;;8.35;2.90;;;;;;;8.06;78.03;100344.66;5132422;27;20040;-75
2024/01/09 10:15:09;;;;;;;5.50;2.60;;;;;;;7.85;77.14;100226.22;5145800;27;20043;-75
2024/01/09 10:17:34;;;;;;;;;;;;;;;6.72;74.80;99707.88;5141764;27;20027;-75
2024/01/09 10:20:02;;;;;;;3.55;2.88;;;;;;;7.54;77.00;100340.91;5126778;27;20015;-75
2024/01/09 10:22:31;;;;;;;4.85;2.88;;;;;;;7.59;75.98;100250.97;5113737;27;20042;-75
2024/01/09 10:24:58;;;;;;;5.13;2.70;;;;;;;8.08;75.10;100321.38;5141296;27;20045;-75
2024/01/09 10:27:25;;;;;;;6.78;2.70;;;;;;;8.14;74.48;100304.78;5147729;27;20390;-75
2024/01/09 10:29:51;;;;;;;8.18;2.97;;;;;;;8.17;73.56;100214.91;5145479;27;20038;-74
2024/01/09 10:32:18;;;;;;;5.15;2.90;;;;;;;8.32;72.86;100204.50;5130403;27;20444;-75
2024/01/09 10:34:44;;;;;;;4.60;2.63;;;;;;;8.48;72.10;100232.19;5138625;27;20031;-76
2024/01/09 10:37:09;;;;;;;4.47;2.83;;;;;;;8.31;71.40;100162.09;5147471;27;20030;-75
2024/01/09 10:39:35;;;;;;;6.07;3.30;;;;;;;8.29;71.02;100078.97;5147907;27;20480;-75
2024/01/09 10:42:11;;;;;;;3.83;2.42;;;;;;;7.70;70.91;99962.06;5130285;27;20123;-75
2024/01/09 10:44:40;;;;;;;5.07;2.20;;;;;;;8.20;70.55;100100.25;5134215;27;20636;-75
2024/01/09 10:47:09;;;;;;;3.65;2.60;;;;;;;7.76;69.27;99796.69;5147652;27;20046;-75
2024/01/09 10:49:38;;;;;;;3.30;2.28;;;;;;;7.97;70.08;100070.78;5147700;27;20098;-76
2024/01/09 10:52:05;;;;;;;7.82;3.70;;;;;;;8.10;69.47;100001.19;5147497;27;20019;-74
2024/01/09 10:54:33;;;;;;;5.68;2.40;;;;;;;8.28;69.85;100176.53;5147198;27;20031;-75
2024/01/09 10:57:02;;;;;;;8.25;3.08;;;;;;;7.52;68.34;99734.59;5147744;27;20034;-76
2024/01/09 10:59:29;;;;;;;4.32;3.03;;;;;;;5.83;70.28;99629.66;5148784;27;20545;-75
2024/01/09 11:01:54;;;;;;;3.92;2.95;;;;;;;6.22;71.19;99985.19;5149217;27;20026;-75
2024/01/09 11:04:20;;;;;;;6.67;3.50;;;;;;;5.41;71.51;99784.81;5139548;27;20087;-75
2024/01/09 11:06:47;;;;;;;;;;;;;;;6.07;73.12;100355.94;5149119;27;20100;-75
2024/01/09 11:09:15;;;;;;;7.25;4.25;;;;;;;6.69;72.62;100438.50;5147198;27;20001;-75
2024/01/09 11:11:42;;;;;;;5.60;3.58;;;;;;;6.70;72.06;100378.34;5122976;27;20126;-75
2024/01/09 11:14:11;;;;;;;5.97;4.13;;;;;;;6.58;72.26;100359.13;5146694;27;20090;-75
2024/01/09 11:16:42;;;;;;;5.13;3.65;;;;;;;6.24;72.13;100289.88;5130028;27;20030;-76
2024/01/09 11:19:11;;;;;;;6.28;4.45;;;;;;;5.49;72.67;100096.47;5148402;27;20031;-75
2024/01/09 11:21:36;;;;;;;7.35;4.78;;;;;;;6.27;73.74;100562.66;5147223;27;20031;-76
2024/01/09 11:24:03;;;;;;;7.43;4.72;;;;;;;5.83;73.11;100287.47;5129572;27;20038;-76
2024/01/09 11:26:31;;;;;;;;;;;;;;;6.33;73.45;100540.91;5148821;27;20440;-75
2024/01/09 11:28:57;;;;;;;9.25;4.50;;;;;;;6.02;73.53;100428.91;5146701;27;19915;-77
2024/01/09 11:31:23;;;;;;;7.80;5.07;;;;;;;5.07;73.52;100107.47;5142177;27;20016;-76
2024/01/09 11:33:54;;;;;;;5.72;3.88;;;;;;;5.53;74.76;100473.88;5125943;27;20400;-76
2024/01/09 11:36:27;;;;;;;5.25;3.63;;;;;;;5.35;74.92;100481.63;5145308;27;20091;-76